createdAt,value
2022-12-09T00:02:04.627Z,4.19
2022-12-09T00:04:31.448Z,4.31
2022-12-09T00:06:58.058Z,4.25
2022-12-09T00:09:24.643Z,4.14
2022-12-09T00:11:52.811Z,4.20
2022-12-09T00:14:19.384Z,4.18
2022-12-09T00:16:46.123Z,3.91
2022-12-09T00:19:13.012Z,3.97
2022-12-09T00:21:39.556Z,3.99
2022-12-09T00:24:08.030Z,4.13
2022-12-09T00:26:34.738Z,4.14
2022-12-09T00:29:01.799Z,3.56
2022-12-09T00:31:32.440Z,4.04
2022-12-09T00:34:08.940Z,3.51
2022-12-09T00:36:37.724Z,4.03
2022-12-09T00:39:04.551Z,3.58
2022-12-09T00:41:31.438Z,3.02
2022-12-09T00:43:58.877Z,3.53
2022-12-09T00:46:25.572Z,4.01
2022-12-09T00:48:53.040Z,4.03
2022-12-09T00:51:22.381Z,4.00
2022-12-09T00:53:53.487Z,3.96
2022-12-09T00:56:22.022Z,3.73
2022-12-09T00:58:48.652Z,3.75
2022-12-09T01:01:15.281Z,3.96
2022-12-09T01:03:41.977Z,3.95
2022-12-09T01:06:20.235Z,3.97
2022-12-09T01:08:47.127Z,3.88
2022-12-09T01:11:20.657Z,3.98
2022-12-09T01:13:48.915Z,3.90
2022-12-09T01:16:18.094Z,3.83
2022-12-09T01:18:45.247Z,3.86
2022-12-09T01:21:12.760Z,3.76
2022-12-09T01:23:40.005Z,4.00
2022-12-09T01:26:07.397Z,3.97
2022-12-09T01:28:36.110Z,3.93
2022-12-09T01:31:07.048Z,3.93
2022-12-09T01:33:34.182Z,3.92
2022-12-09T01:36:03.603Z,4.02
2022-12-09T01:38:30.283Z,3.90
2022-12-09T01:40:57.811Z,3.98
2022-12-09T01:43:24.419Z,3.96
2022-12-09T01:45:51.300Z,3.85
2022-12-09T01:48:26.065Z,3.92
2022-12-09T01:50:56.789Z,4.07
2022-12-09T01:53:27.557Z,4.06
2022-12-09T01:55:57.508Z,3.97
2022-12-09T01:58:24.677Z,4.05
2022-12-09T02:00:52.155Z,3.65
2022-12-09T02:03:21.575Z,3.79
2022-12-09T02:05:49.165Z,3.86
2022-12-09T02:08:18.706Z,3.81
2022-12-09T02:11:12.808Z,3.91
2022-12-09T02:13:54.774Z,3.87
2022-12-09T02:16:24.830Z,3.76
2022-12-09T02:19:01.100Z,3.67
2022-12-09T02:21:48.900Z,3.79
2022-12-09T02:24:25.155Z,3.54
2022-12-09T02:27:09.920Z,3.83
2022-12-09T02:29:54.058Z,3.80
2022-12-09T02:32:47.739Z,3.70
2022-12-09T02:35:32.545Z,3.32
2022-12-09T02:38:09.405Z,3.63
2022-12-09T02:40:50.433Z,3.67
2022-12-09T02:43:21.440Z,3.60
2022-12-09T02:45:55.011Z,3.63
2022-12-09T02:48:27.818Z,3.61
2022-12-09T02:50:57.378Z,3.50
2022-12-09T02:53:25.900Z,3.55
2022-12-09T02:55:56.197Z,3.64
2022-12-09T02:58:23.025Z,3.60
2022-12-09T03:00:52.287Z,3.39
2022-12-09T03:03:19.318Z,3.34
2022-12-09T03:06:02.761Z,3.56
2022-12-09T03:08:34.314Z,3.36
2022-12-09T03:11:05.207Z,3.49
2022-12-09T03:13:54.117Z,3.42
2022-12-09T03:16:36.749Z,3.48
2022-12-09T03:19:25.352Z,3.44
2022-12-09T03:21:57.397Z,3.39
2022-12-09T03:24:50.352Z,3.44
2022-12-09T03:27:19.881Z,3.60
2022-12-09T03:29:48.516Z,2.94
2022-12-09T03:32:18.664Z,3.63
2022-12-09T03:34:48.287Z,3.13
2022-12-09T03:37:17.740Z,3.70
2022-12-09T03:39:45.630Z,3.64
2022-12-09T03:42:20.007Z,3.71
2022-12-09T03:44:58.461Z,3.73
2022-12-09T03:47:25.074Z,3.73
2022-12-09T03:49:51.984Z,3.71
2022-12-09T03:52:25.166Z,3.70
2022-12-09T03:55:05.747Z,3.72
2022-12-09T03:57:37.987Z,3.53
2022-12-09T04:00:06.394Z,3.55
2022-12-09T04:02:39.429Z,3.62
2022-12-09T04:05:06.720Z,3.60
2022-12-09T04:07:33.645Z,3.62
2022-12-09T04:10:00.461Z,3.65
2022-12-09T04:12:27.057Z,3.48
2022-12-09T04:14:53.766Z,2.97
2022-12-09T04:17:20.487Z,3.44
2022-12-09T04:19:47.262Z,2.71
2022-12-09T04:22:14.014Z,3.31
2022-12-09T04:24:40.559Z,2.77
2022-12-09T04:27:07.175Z,3.29
2022-12-09T04:29:33.726Z,3.18
2022-12-09T04:32:00.782Z,2.37
2022-12-09T04:34:27.834Z,3.16
2022-12-09T04:36:54.343Z,3.22
2022-12-09T04:39:21.159Z,3.11
2022-12-09T04:41:47.715Z,3.07
2022-12-09T04:44:14.236Z,3.14
2022-12-09T04:46:41.182Z,3.18
2022-12-09T04:49:08.187Z,3.16
2022-12-09T04:51:39.473Z,3.10
2022-12-09T04:54:07.498Z,3.12
2022-12-09T04:56:33.999Z,3.01
2022-12-09T04:59:00.466Z,3.10
2022-12-09T05:01:31.128Z,3.12
2022-12-09T05:03:58.560Z,2.68
2022-12-09T05:06:25.993Z,3.27
2022-12-09T05:08:52.877Z,3.18
2022-12-09T05:11:20.941Z,3.37
2022-12-09T05:13:47.937Z,2.69
2022-12-09T05:16:17.469Z,3.43
2022-12-09T05:18:45.741Z,3.56
2022-12-09T05:21:16.067Z,3.51
2022-12-09T05:23:43.756Z,3.37
2022-12-09T05:26:13.152Z,3.08
2022-12-09T05:28:40.289Z,3.58
2022-12-09T05:31:11.752Z,3.06
2022-12-09T05:33:38.891Z,3.52
2022-12-09T05:36:11.074Z,3.65
2022-12-09T05:38:38.166Z,3.59
2022-12-09T05:41:05.341Z,3.51
2022-12-09T05:43:34.015Z,3.57
2022-12-09T05:46:01.869Z,3.68
2022-12-09T05:48:29.041Z,3.15
2022-12-09T05:51:01.369Z,2.67
2022-12-09T05:53:29.781Z,3.57
2022-12-09T05:55:57.351Z,3.49
2022-12-09T05:58:24.673Z,3.56
2022-12-09T06:00:51.601Z,3.47
2022-12-09T06:03:18.338Z,3.61
2022-12-09T06:05:45.899Z,3.42
2022-12-09T06:08:12.757Z,3.46
2022-12-09T06:10:41.365Z,3.17
2022-12-09T06:13:08.634Z,3.53
2022-12-09T06:15:36.032Z,3.69
2022-12-09T06:18:03.163Z,3.37
2022-12-09T06:20:30.009Z,3.62
2022-12-09T06:22:57.541Z,3.62
2022-12-09T06:25:25.409Z,3.35
2022-12-09T06:27:53.894Z,3.59
2022-12-09T06:30:20.965Z,3.42
2022-12-09T06:32:47.754Z,3.50
2022-12-09T06:35:15.567Z,3.68
2022-12-09T06:37:42.987Z,3.19
2022-12-09T06:40:10.440Z,3.57
2022-12-09T06:42:37.634Z,3.59
2022-12-09T06:45:05.013Z,3.63
2022-12-09T06:47:32.797Z,3.44
2022-12-09T06:50:06.517Z,3.36
2022-12-09T06:52:37.583Z,3.00
2022-12-09T06:55:06.333Z,3.38
2022-12-09T06:57:34.649Z,3.52
2022-12-09T07:00:01.908Z,3.45
2022-12-09T07:02:34.049Z,3.19
2022-12-09T07:05:02.861Z,3.32
2022-12-09T07:07:29.905Z,3.36
2022-12-09T07:09:57.040Z,3.16
2022-12-09T07:12:24.108Z,2.98
2022-12-09T07:14:50.949Z,3.10
2022-12-09T07:17:20.073Z,2.74
2022-12-09T07:19:47.365Z,2.92
2022-12-09T07:22:14.640Z,3.07
2022-12-09T07:24:41.981Z,3.03
2022-12-09T07:27:18.608Z,2.97
2022-12-09T07:29:47.057Z,3.01
2022-12-09T07:32:14.247Z,3.07
2022-12-09T07:34:42.409Z,3.07
2022-12-09T07:37:09.965Z,3.16
2022-12-09T07:39:36.832Z,2.71
2022-12-09T07:42:03.840Z,3.12
2022-12-09T07:44:31.094Z,3.15
2022-12-09T07:46:58.429Z,3.18
2022-12-09T07:49:25.737Z,3.06
2022-12-09T07:51:52.799Z,3.17
2022-12-09T07:54:20.525Z,3.08
2022-12-09T07:56:47.975Z,2.54
2022-12-09T07:59:15.531Z,3.22
2022-12-09T08:01:43.131Z,3.14
2022-12-09T08:04:10.281Z,3.25
2022-12-09T08:06:38.018Z,2.75
2022-12-09T08:09:08.154Z,2.94
2022-12-09T08:11:35.085Z,2.81
2022-12-09T08:14:10.807Z,2.74
2022-12-09T08:16:40.513Z,2.11
2022-12-09T08:19:08.083Z,2.49
2022-12-09T08:21:35.163Z,1.70
2022-12-09T08:24:06.010Z,1.74
2022-12-09T08:26:34.548Z,1.92
2022-12-09T08:29:01.946Z,2.15
2022-12-09T08:31:29.094Z,1.41
2022-12-09T08:33:56.825Z,1.67
2022-12-09T08:36:26.440Z,1.99
2022-12-09T08:38:53.736Z,2.07
2022-12-09T08:41:35.898Z,1.95
2022-12-09T08:44:11.375Z,2.21
2022-12-09T08:46:40.201Z,2.32
2022-12-09T08:49:08.146Z,2.43
2022-12-09T08:51:35.679Z,2.60
2022-12-09T08:54:03.626Z,2.47
2022-12-09T08:56:30.664Z,2.72
2022-12-09T08:58:58.040Z,2.68
2022-12-09T09:01:32.338Z,3.46
2022-12-09T09:04:05.447Z,3.76
2022-12-09T09:06:33.128Z,3.90
2022-12-09T09:09:00.170Z,4.45
2022-12-09T09:11:27.949Z,4.54
2022-12-09T09:13:55.293Z,4.71
2022-12-09T09:16:24.142Z,5.35
2022-12-09T09:18:52.028Z,6.26
2022-12-09T09:21:22.525Z,6.14
2022-12-09T09:23:50.155Z,7.04
2022-12-09T09:26:20.198Z,7.00
2022-12-09T09:28:48.076Z,7.94
2022-12-09T09:31:22.165Z,8.55
2022-12-09T09:33:49.831Z,8.54
2022-12-09T09:36:20.820Z,8.29
2022-12-09T09:38:49.948Z,7.99
2022-12-09T09:41:38.030Z,7.99
2022-12-09T09:44:30.614Z,7.56
2022-12-09T09:46:58.551Z,7.54
2022-12-09T09:49:34.665Z,7.44
2022-12-09T09:52:08.708Z,7.79
2022-12-09T09:54:35.689Z,7.67
2022-12-09T09:57:11.003Z,7.60
2022-12-09T10:00:00.748Z,7.74
2022-12-09T10:02:58.242Z,8.07
2022-12-09T10:05:39.206Z,7.92
2022-12-09T10:08:34.976Z,7.45
2022-12-09T10:11:17.974Z,6.42
2022-12-09T10:13:58.633Z,5.92
2022-12-09T10:16:49.552Z,5.68
2022-12-09T10:19:19.749Z,5.57
2022-12-09T10:21:48.882Z,5.53
2022-12-09T10:24:39.847Z,5.35
2022-12-09T10:27:37.647Z,5.21
2022-12-09T10:30:07.687Z,4.56
2022-12-09T10:32:36.875Z,4.72
2022-12-09T10:35:36.724Z,4.96
2022-12-09T10:38:10.436Z,5.11
2022-12-09T10:40:52.995Z,5.22
2022-12-09T10:43:41.016Z,5.46
2022-12-09T10:46:24.341Z,5.40
2022-12-09T10:48:56.287Z,4.90
2022-12-09T10:51:32.013Z,4.72
2022-12-09T10:54:23.142Z,5.17
2022-12-09T10:57:05.070Z,5.49
2022-12-09T10:59:32.269Z,5.66
2022-12-09T11:02:01.672Z,5.66
2022-12-09T11:04:41.775Z,5.56
2022-12-09T11:07:20.925Z,5.27
2022-12-09T11:09:58.832Z,4.95
2022-12-09T11:12:30.951Z,5.29
2022-12-09T11:15:04.456Z,5.40
2022-12-09T11:17:36.845Z,5.44
2022-12-09T11:20:07.549Z,5.56
2022-12-09T11:22:40.334Z,5.03
2022-12-09T11:25:27.282Z,5.63
2022-12-09T11:27:57.073Z,5.70
2022-12-09T11:30:57.595Z,5.68
2022-12-09T11:33:30.731Z,5.55
2022-12-09T11:36:18.702Z,6.16
2022-12-09T11:38:48.018Z,6.08
2022-12-09T11:41:15.200Z,5.76
2022-12-09T11:43:50.161Z,5.52
2022-12-09T11:46:22.421Z,5.35
2022-12-09T11:48:55.919Z,5.08
2022-12-09T11:51:24.193Z,5.24
2022-12-09T11:53:53.599Z,5.35
2022-12-09T11:56:25.733Z,5.12
2022-12-09T11:59:17.825Z,5.65
2022-12-09T12:02:04.575Z,5.44
2022-12-09T12:04:36.250Z,5.39
2022-12-09T12:07:15.717Z,5.34
2022-12-09T12:09:56.099Z,5.36
2022-12-09T12:12:25.559Z,5.27
2022-12-09T12:14:53.869Z,5.21
2022-12-09T12:17:37.028Z,4.76
2022-12-09T12:20:04.952Z,4.98
2022-12-09T12:22:54.495Z,5.33
2022-12-09T12:25:46.616Z,5.47
2022-12-09T12:28:57.317Z,5.47
2022-12-09T12:31:40.808Z,5.55
2022-12-09T12:34:26.120Z,5.04
2022-12-09T12:37:20.026Z,5.55
2022-12-09T12:40:05.025Z,5.44
2022-12-09T12:42:38.028Z,5.34
2022-12-09T12:45:55.102Z,5.29
2022-12-09T12:48:38.464Z,4.79
2022-12-09T12:51:24.690Z,5.09
2022-12-09T12:54:03.407Z,5.06
2022-12-09T12:56:44.979Z,4.51
2022-12-09T12:59:36.334Z,5.08
2022-12-09T13:02:22.965Z,5.01
2022-12-09T13:05:23.108Z,5.10
2022-12-09T13:07:55.978Z,5.03
2022-12-09T13:10:40.003Z,5.00
2022-12-09T13:13:42.385Z,5.06
2022-12-09T13:16:19.776Z,4.98
2022-12-09T13:18:48.510Z,4.90
2022-12-09T13:21:16.479Z,5.03
2022-12-09T13:24:21.489Z,5.06
2022-12-09T13:27:08.075Z,5.06
2022-12-09T13:29:39.626Z,4.82
2022-12-09T13:32:43.014Z,5.00
2022-12-09T13:35:19.657Z,4.31
2022-12-09T13:37:46.763Z,4.91
2022-12-09T13:40:35.879Z,4.73
2022-12-09T13:43:02.351Z,4.74
2022-12-09T13:45:36.811Z,4.59
2022-12-09T13:48:16.552Z,4.53
2022-12-09T13:50:51.412Z,4.67
2022-12-09T13:53:20.971Z,4.60
2022-12-09T13:56:25.169Z,4.61
2022-12-09T13:59:23.382Z,4.49
2022-12-09T14:02:01.769Z,4.54
2022-12-09T14:04:33.444Z,4.52
2022-12-09T14:07:15.790Z,4.46
2022-12-09T14:09:45.513Z,4.67
2022-12-09T14:12:34.854Z,4.64
2022-12-09T14:15:26.009Z,4.57
2022-12-09T14:18:02.333Z,4.43
2022-12-09T14:20:31.812Z,4.02
2022-12-09T14:23:07.379Z,4.16
2022-12-09T14:25:33.890Z,4.35
2022-12-09T14:28:09.640Z,4.32
2022-12-09T14:30:50.388Z,4.28
2022-12-09T14:33:29.086Z,4.16
2022-12-09T14:36:02.089Z,3.86
2022-12-09T14:38:54.357Z,4.00
2022-12-09T14:41:39.495Z,3.81
2022-12-09T14:44:49.153Z,3.79
2022-12-09T14:47:28.054Z,3.73
2022-12-09T14:49:56.226Z,3.18
2022-12-09T14:52:33.900Z,3.28
2022-12-09T14:55:04.643Z,3.53
2022-12-09T14:57:41.461Z,2.84
2022-12-09T15:00:28.362Z,3.30
2022-12-09T15:03:30.107Z,2.73
2022-12-09T15:05:55.474Z,3.04
2022-12-09T15:08:30.608Z,2.96
2022-12-09T15:10:57.842Z,2.54
2022-12-09T15:13:25.743Z,2.80
2022-12-09T15:15:53.309Z,2.71
2022-12-09T15:18:25.683Z,2.86
2022-12-09T15:20:58.451Z,2.85
2022-12-09T15:23:32.645Z,2.79
2022-12-09T15:26:06.648Z,2.89
2022-12-09T15:28:35.723Z,2.92
2022-12-09T15:31:03.997Z,2.94
2022-12-09T15:33:39.122Z,2.94
2022-12-09T15:36:09.773Z,2.42
2022-12-09T15:38:42.145Z,2.91
2022-12-09T15:41:28.371Z,2.79
2022-12-09T15:43:59.219Z,2.86
2022-12-09T15:46:27.625Z,2.86
2022-12-09T15:48:57.506Z,2.86
2022-12-09T15:51:26.402Z,2.57
2022-12-09T15:54:01.380Z,2.21
2022-12-09T15:56:37.785Z,2.73
2022-12-09T15:59:20.705Z,2.48
2022-12-09T16:01:52.047Z,2.51
2022-12-09T16:04:22.515Z,1.99
2022-12-09T16:06:50.306Z,2.19
2022-12-09T16:09:20.170Z,2.02
2022-12-09T16:11:50.291Z,1.73
2022-12-09T16:14:18.839Z,2.32
2022-12-09T16:17:01.373Z,1.78
2022-12-09T16:19:31.056Z,2.44
2022-12-09T16:22:11.098Z,2.44
2022-12-09T16:25:13.005Z,2.38
2022-12-09T16:27:37.198Z,2.33
2022-12-09T16:30:22.266Z,2.23
2022-12-09T16:33:00.932Z,2.08
2022-12-09T16:35:45.669Z,1.90
2022-12-09T16:38:18.229Z,1.85
2022-12-09T16:40:44.679Z,1.92
2022-12-09T16:43:17.321Z,1.85
2022-12-09T16:45:44.671Z,1.74
2022-12-09T16:48:12.400Z,1.53
2022-12-09T16:50:57.025Z,1.35
2022-12-09T16:53:30.039Z,1.00
2022-12-09T16:56:01.520Z,0.71
2022-12-09T16:58:30.384Z,0.27
2022-12-09T17:00:58.733Z,0.37
2022-12-09T17:03:39.960Z,0.78
2022-12-09T17:06:07.519Z,0.55
2022-12-09T17:08:34.050Z,0.67
2022-12-09T17:11:00.601Z,0.93
2022-12-09T17:13:27.723Z,1.02
2022-12-09T17:15:58.328Z,1.24
2022-12-09T17:18:26.210Z,1.41
2022-12-09T17:21:00.759Z,1.41
2022-12-09T17:23:27.535Z,1.50
2022-12-09T17:25:58.618Z,1.24
2022-12-09T17:28:29.858Z,1.47
2022-12-09T17:31:00.591Z,1.42
2022-12-09T17:33:28.994Z,1.61
2022-12-09T17:35:56.507Z,1.07
2022-12-09T17:38:23.316Z,1.59
2022-12-09T17:40:49.984Z,0.60
2022-12-09T17:43:16.526Z,1.56
2022-12-09T17:45:43.112Z,1.69
2022-12-09T17:48:10.369Z,1.79
2022-12-09T17:50:38.279Z,1.77
2022-12-09T17:53:06.899Z,1.79
2022-12-09T17:55:33.495Z,1.75
2022-12-09T17:58:00.088Z,1.73
2022-12-09T18:00:26.728Z,1.81
2022-12-09T18:02:53.292Z,1.90
2022-12-09T18:05:20.139Z,1.95
2022-12-09T18:07:46.668Z,2.05
2022-12-09T18:10:13.308Z,2.12
2022-12-09T18:12:40.132Z,2.07
2022-12-09T18:15:07.935Z,2.03
2022-12-09T18:17:34.880Z,2.08
2022-12-09T18:20:01.436Z,2.09
2022-12-09T18:22:27.991Z,1.93
2022-12-09T18:24:54.864Z,1.81
2022-12-09T18:27:21.444Z,1.67
2022-12-09T18:29:47.918Z,1.62
2022-12-09T18:32:14.582Z,1.32
2022-12-09T18:34:41.124Z,1.40
2022-12-09T18:37:07.615Z,1.32
2022-12-09T18:39:34.959Z,1.16
2022-12-09T18:42:01.570Z,1.12
2022-12-09T18:44:28.145Z,1.03
2022-12-09T18:46:54.803Z,0.29
2022-12-09T18:49:23.960Z,0.51
2022-12-09T18:51:52.488Z,0.49
2022-12-09T18:54:28.046Z,0.51
2022-12-09T18:56:55.750Z,0.36
2022-12-09T18:59:24.890Z,0.10
2022-12-09T19:01:52.066Z,0.02
2022-12-09T19:04:24.989Z,-0.15
2022-12-09T19:06:54.483Z,-0.38
2022-12-09T19:09:24.062Z,-0.21
2022-12-09T19:11:51.712Z,-0.31
2022-12-09T19:14:20.390Z,-0.43
2022-12-09T19:16:47.566Z,-0.60
2022-12-09T19:19:19.088Z,-0.80
2022-12-09T19:21:46.253Z,-0.84
2022-12-09T19:24:15.791Z,-0.85
2022-12-09T19:26:42.883Z,-1.08
2022-12-09T19:29:12.075Z,-1.99
2022-12-09T19:31:44.053Z,-1.24
2022-12-09T19:34:15.236Z,-1.05
2022-12-09T19:36:43.127Z,-1.04
2022-12-09T19:39:12.395Z,-1.24
2022-12-09T19:41:40.340Z,-1.18
2022-12-09T19:44:07.771Z,-1.34
2022-12-09T19:46:35.118Z,-1.48
2022-12-09T19:49:02.547Z,-1.24
2022-12-09T19:51:29.607Z,-1.63
2022-12-09T19:53:58.238Z,-2.35
2022-12-09T19:56:25.215Z,-1.89
2022-12-09T19:58:53.326Z,-1.48
2022-12-09T20:01:26.011Z,-1.43
2022-12-09T20:03:58.168Z,-1.93
2022-12-09T20:06:25.389Z,-1.41
2022-12-09T20:08:51.972Z,-2.16
2022-12-09T20:11:24.200Z,-1.74
2022-12-09T20:13:52.749Z,-2.25
2022-12-09T20:16:22.315Z,-2.70
2022-12-09T20:18:50.888Z,-1.82
2022-12-09T20:21:19.524Z,-1.61
2022-12-09T20:23:46.745Z,-2.02
2022-12-09T20:26:15.138Z,-1.74
2022-12-09T20:28:43.941Z,-2.12
2022-12-09T20:31:21.084Z,-1.70
2022-12-09T20:33:48.251Z,-1.80
2022-12-09T20:36:18.189Z,-2.22
2022-12-09T20:38:49.338Z,-1.67
2022-12-09T20:41:16.743Z,-1.86
2022-12-09T20:43:47.204Z,-2.16
2022-12-09T20:46:17.404Z,-1.65
2022-12-09T20:48:44.383Z,-1.94
2022-12-09T20:51:18.489Z,-1.86
2022-12-09T20:53:46.533Z,-1.92
2022-12-09T20:56:14.494Z,-1.88
2022-12-09T20:58:42.787Z,-2.35
2022-12-09T21:01:14.384Z,-2.02
2022-12-09T21:03:41.997Z,-2.33
2022-12-09T21:06:09.974Z,-1.76
2022-12-09T21:08:37.338Z,-1.80
2022-12-09T21:11:10.314Z,-1.98
2022-12-09T21:13:43.468Z,-1.91
2022-12-09T21:16:15.839Z,-2.48
2022-12-09T21:18:43.524Z,-1.93
2022-12-09T21:21:10.088Z,-2.16
2022-12-09T21:23:37.658Z,-2.63
2022-12-09T21:26:09.708Z,-2.21
2022-12-09T21:28:37.936Z,-2.09
2022-12-09T21:31:09.762Z,-2.19
2022-12-09T21:33:37.560Z,-2.22
2022-12-09T21:36:06.110Z,-2.07
2022-12-09T21:38:32.778Z,-2.29
2022-12-09T21:41:08.189Z,-2.15
2022-12-09T21:43:36.096Z,-2.29
2022-12-09T21:46:14.102Z,-2.18
2022-12-09T21:48:41.041Z,-2.74
2022-12-09T21:51:09.747Z,-2.38
2022-12-09T21:53:37.151Z,-2.43
2022-12-09T21:56:14.105Z,-2.36
2022-12-09T21:58:40.767Z,-3.02
2022-12-09T22:01:19.442Z,-2.89
2022-12-09T22:03:47.411Z,-2.91
2022-12-09T22:06:15.100Z,-2.30
2022-12-09T22:08:42.985Z,-2.51
2022-12-09T22:11:13.719Z,-2.44
2022-12-09T22:13:40.673Z,-2.53
2022-12-09T22:16:13.274Z,-3.00
2022-12-09T22:18:41.750Z,-2.85
2022-12-09T22:21:27.448Z,-2.90
2022-12-09T22:23:56.890Z,-2.24
2022-12-09T22:26:24.061Z,-2.46
2022-12-09T22:28:50.719Z,-2.42
2022-12-09T22:31:21.282Z,-2.33
2022-12-09T22:33:49.468Z,-2.74
2022-12-09T22:36:17.048Z,-2.75
2022-12-09T22:38:44.160Z,-2.57
2022-12-09T22:41:13.519Z,-2.49
2022-12-09T22:43:41.018Z,-2.66
2022-12-09T22:46:13.975Z,-2.53
2022-12-09T22:48:41.609Z,-2.98
2022-12-09T22:51:17.007Z,-2.44
2022-12-09T22:53:44.113Z,-2.58
2022-12-09T22:56:12.047Z,-2.45
2022-12-09T22:58:38.519Z,-3.20
2022-12-09T23:01:11.294Z,-3.07
2022-12-09T23:03:37.967Z,-2.74
2022-12-09T23:06:05.010Z,-2.67
2022-12-09T23:08:31.623Z,-2.54
2022-12-09T23:11:03.162Z,-2.44
2022-12-09T23:13:32.263Z,-3.07
2022-12-09T23:16:03.176Z,-3.10
2022-12-09T23:18:30.639Z,-2.58
2022-12-09T23:21:06.526Z,-3.02
2022-12-09T23:23:33.187Z,-3.05
2022-12-09T23:26:09.086Z,-3.10
2022-12-09T23:28:46.970Z,-2.52
2022-12-09T23:31:15.316Z,-3.05
2022-12-09T23:33:43.833Z,-2.59
2022-12-09T23:36:13.310Z,-3.13
2022-12-09T23:38:40.695Z,-2.59
2022-12-09T23:41:07.637Z,-2.80
2022-12-09T23:43:36.489Z,-2.80
2022-12-09T23:46:15.136Z,-2.72
2022-12-09T23:48:43.496Z,-2.85
2022-12-09T23:51:12.090Z,-3.41
2022-12-09T23:53:39.421Z,-3.23
2022-12-09T23:56:07.373Z,-2.74
2022-12-09T23:58:34.104Z,-2.91
